createdAt,value
2024-05-09T00:00:42.541Z,93.49
2024-05-09T00:03:11.050Z,93.61
2024-05-09T00:05:41.291Z,93.76
2024-05-09T00:08:09.843Z,93.29
2024-05-09T00:10:39.195Z,92.91
2024-05-09T00:13:08.124Z,92.91
2024-05-09T00:15:36.355Z,93.06
2024-05-09T00:18:04.768Z,92.73
2024-05-09T00:20:37.912Z,92.77
2024-05-09T00:23:12.606Z,92.26
2024-05-09T00:25:42.927Z,92.62
2024-05-09T00:28:11.642Z,92.17
2024-05-09T00:30:38.663Z,92.46
2024-05-09T00:33:07.267Z,93.02
2024-05-09T00:35:35.718Z,93.12
2024-05-09T00:38:03.296Z,93.94
2024-05-09T00:40:39.870Z,94.18
2024-05-09T00:43:10.658Z,94.65
2024-05-09T00:45:37.976Z,94.09
2024-05-09T00:48:07.810Z,94.76
2024-05-09T00:50:38.987Z,94.46
2024-05-09T00:53:14.677Z,93.66
2024-05-09T00:55:42.759Z,92.99
2024-05-09T00:58:12.475Z,95.06
2024-05-09T01:01:11.798Z,94.65
2024-05-09T01:03:39.101Z,94.69
2024-05-09T01:06:06.297Z,95.36
2024-05-09T01:08:33.621Z,95.36
2024-05-09T01:11:00.929Z,94.96
2024-05-09T01:13:28.058Z,96.09
2024-05-09T01:15:55.680Z,95.63
2024-05-09T01:18:23.146Z,95.12
2024-05-09T01:20:50.417Z,94.38
2024-05-09T01:23:17.615Z,93.86
2024-05-09T01:25:46.127Z,94.20
2024-05-09T01:28:14.168Z,93.67
2024-05-09T01:30:41.248Z,93.49
2024-05-09T01:33:10.397Z,94.89
2024-05-09T01:35:41.303Z,96.32
2024-05-09T01:38:10.047Z,99.16
2024-05-09T01:40:39.758Z,99.18
2024-05-09T01:43:09.541Z,100.00
2024-05-09T01:45:38.313Z,100.00
2024-05-09T01:48:06.111Z,100.00
2024-05-09T01:50:38.284Z,100.00
2024-05-09T01:53:10.087Z,100.00
2024-05-09T01:55:37.575Z,100.00
2024-05-09T01:58:04.922Z,100.00
2024-05-09T02:00:38.892Z,100.00
2024-05-09T02:03:16.411Z,99.27
2024-05-09T02:05:46.771Z,98.91
2024-05-09T02:08:16.035Z,100.00
2024-05-09T02:10:44.853Z,99.89
2024-05-09T02:13:12.678Z,100.00
2024-05-09T02:15:39.940Z,100.00
2024-05-09T02:18:08.408Z,100.00
2024-05-09T02:20:39.061Z,99.88
2024-05-09T02:23:07.023Z,100.00
2024-05-09T02:25:34.602Z,100.00
2024-05-09T02:28:01.945Z,100.00
2024-05-09T02:30:38.225Z,99.81
2024-05-09T02:33:13.394Z,100.00
2024-05-09T02:35:43.082Z,99.78
2024-05-09T02:38:11.210Z,100.00
2024-05-09T02:40:39.725Z,100.00
2024-05-09T02:43:09.577Z,100.00
2024-05-09T02:45:38.379Z,100.00
2024-05-09T02:48:06.854Z,100.00
2024-05-09T02:50:38.627Z,100.00
2024-05-09T02:53:08.628Z,100.00
2024-05-09T02:55:36.451Z,100.00
2024-05-09T02:58:03.831Z,100.00
2024-05-09T03:00:38.396Z,100.00
2024-05-09T03:03:10.170Z,100.00
2024-05-09T03:05:39.765Z,100.00
2024-05-09T03:08:07.437Z,100.00
2024-05-09T03:10:36.409Z,100.00
2024-05-09T03:13:10.030Z,100.00
2024-05-09T03:15:37.201Z,100.00
2024-05-09T03:18:06.548Z,100.00
2024-05-09T03:20:35.867Z,100.00
2024-05-09T03:23:05.633Z,100.00
2024-05-09T03:25:33.626Z,100.00
2024-05-09T03:28:00.955Z,100.00
2024-05-09T03:30:38.426Z,100.00
2024-05-09T03:33:18.671Z,100.00
2024-05-09T03:35:47.562Z,100.00
2024-05-09T03:38:15.009Z,100.00
2024-05-09T03:40:49.901Z,100.00
2024-05-09T03:43:18.966Z,100.00
2024-05-09T03:45:49.529Z,100.00
2024-05-09T03:48:17.239Z,100.00
2024-05-09T03:50:44.645Z,100.00
2024-05-09T03:53:13.418Z,100.00
2024-05-09T03:55:40.820Z,100.00
2024-05-09T03:58:08.585Z,100.00
2024-05-09T04:00:39.163Z,100.00
2024-05-09T04:03:10.354Z,100.00
2024-05-09T04:05:41.607Z,100.00
2024-05-09T04:08:10.398Z,100.00
2024-05-09T04:10:37.952Z,100.00
2024-05-09T04:13:05.443Z,100.00
2024-05-09T04:15:32.851Z,100.00
2024-05-09T04:18:00.752Z,100.00
2024-05-09T04:20:36.619Z,100.00
2024-05-09T04:23:08.682Z,100.00
2024-05-09T04:25:37.243Z,100.00
2024-05-09T04:28:05.313Z,100.00
2024-05-09T04:30:38.625Z,100.00
2024-05-09T04:33:11.144Z,100.00
2024-05-09T04:35:42.073Z,100.00
2024-05-09T04:38:09.632Z,100.00
2024-05-09T04:40:37.771Z,100.00
2024-05-09T04:43:06.709Z,100.00
2024-05-09T04:45:34.502Z,100.00
2024-05-09T04:48:02.286Z,100.00
2024-05-09T04:50:36.153Z,100.00
2024-05-09T04:53:08.179Z,100.00
2024-05-09T04:55:36.694Z,100.00
2024-05-09T04:58:03.845Z,100.00
2024-05-09T05:00:36.491Z,100.00
2024-05-09T05:03:08.533Z,100.00
2024-05-09T05:05:41.821Z,100.00
2024-05-09T05:08:19.208Z,100.00
2024-05-09T05:10:48.532Z,100.00
2024-05-09T05:13:20.963Z,100.00
2024-05-09T05:15:51.468Z,99.30
2024-05-09T05:18:19.789Z,100.00
2024-05-09T05:20:47.583Z,100.00
2024-05-09T05:23:18.448Z,100.00
2024-05-09T05:25:48.165Z,100.00
2024-05-09T05:28:19.849Z,100.00
2024-05-09T05:30:47.114Z,100.00
2024-05-09T05:33:16.083Z,97.10
2024-05-09T05:35:43.798Z,94.06
2024-05-09T05:38:11.279Z,96.17
2024-05-09T05:40:40.233Z,93.49
2024-05-09T05:43:09.764Z,92.85
2024-05-09T05:45:37.159Z,92.59
2024-05-09T05:48:06.094Z,93.30
2024-05-09T05:50:38.469Z,91.58
2024-05-09T05:53:08.090Z,91.13
2024-05-09T05:55:40.380Z,89.97
2024-05-09T05:58:11.537Z,89.43
2024-05-09T06:00:40.500Z,90.89
2024-05-09T06:03:09.597Z,91.44
2024-05-09T06:05:40.435Z,87.95
2024-05-09T06:08:08.576Z,88.69
2024-05-09T06:10:39.361Z,85.05
2024-05-09T06:13:11.386Z,81.81
2024-05-09T06:15:40.363Z,80.82
2024-05-09T06:18:09.477Z,81.72
2024-05-09T06:20:39.864Z,77.98
2024-05-09T06:23:08.578Z,76.44
2024-05-09T06:25:39.229Z,76.77
2024-05-09T06:28:06.629Z,78.43
2024-05-09T06:30:40.170Z,74.68
2024-05-09T06:33:12.291Z,75.35
2024-05-09T06:35:41.406Z,70.61
2024-05-09T06:38:09.353Z,67.11
2024-05-09T06:40:41.298Z,63.92
2024-05-09T06:43:13.832Z,58.52
2024-05-09T06:45:41.242Z,62.88
2024-05-09T06:48:11.915Z,63.25
2024-05-09T06:50:40.461Z,64.13
2024-05-09T06:53:11.527Z,64.85
2024-05-09T06:55:38.666Z,67.07
2024-05-09T06:58:07.077Z,72.68
2024-05-09T07:00:39.170Z,67.47
2024-05-09T07:03:12.032Z,65.41
2024-05-09T07:05:40.748Z,67.55
2024-05-09T07:08:08.118Z,66.43
2024-05-09T07:10:36.570Z,69.30
2024-05-09T07:13:15.106Z,67.09
2024-05-09T07:15:42.936Z,66.27
2024-05-09T07:18:20.398Z,68.69
2024-05-09T07:20:49.423Z,71.57
2024-05-09T07:23:18.333Z,66.14
2024-05-09T07:25:46.634Z,61.45
2024-05-09T07:28:16.098Z,59.16
2024-05-09T07:30:43.818Z,61.00
2024-05-09T07:33:17.609Z,58.72
2024-05-09T07:35:44.930Z,57.99
2024-05-09T07:38:12.009Z,58.30
2024-05-09T07:40:40.539Z,55.99
2024-05-09T07:43:08.927Z,59.33
2024-05-09T07:53:37.062Z,57.27
2024-05-09T07:55:57.194Z,54.61
2024-05-09T07:58:27.814Z,54.76
2024-05-09T08:00:55.389Z,54.67
2024-05-09T08:03:23.284Z,48.64
2024-05-09T08:05:52.063Z,51.22
2024-05-09T08:08:19.087Z,49.28
2024-05-09T08:10:46.558Z,48.43
2024-05-09T08:13:13.968Z,51.53
2024-05-09T08:15:41.438Z,52.08
2024-05-09T08:18:09.940Z,53.67
2024-05-09T08:20:38.249Z,49.53
2024-05-09T08:23:05.716Z,47.93
2024-05-09T08:25:33.026Z,50.03
2024-05-09T08:28:00.461Z,53.27
2024-05-09T08:30:33.683Z,48.45
2024-05-09T08:33:05.641Z,49.14
2024-05-09T08:35:33.974Z,53.99
2024-05-09T08:38:03.161Z,53.39
2024-05-09T08:40:35.710Z,52.91
2024-05-09T08:43:12.780Z,51.57
2024-05-09T08:45:44.407Z,50.73
2024-05-09T08:48:15.477Z,49.39
2024-05-09T08:50:44.523Z,48.42
2024-05-09T08:53:12.479Z,50.10
2024-05-09T08:55:43.188Z,49.55
2024-05-09T08:58:16.241Z,49.53
2024-05-09T09:00:45.949Z,48.96
2024-05-09T09:03:17.726Z,47.35
2024-05-09T09:06:07.444Z,46.43
2024-05-09T09:08:34.824Z,46.85
2024-05-09T09:11:02.007Z,46.44
2024-05-09T09:13:29.225Z,43.03
2024-05-09T09:15:59.384Z,49.06
2024-05-09T09:18:28.056Z,46.22
2024-05-09T09:20:55.925Z,45.79
2024-05-09T09:23:23.203Z,47.20
2024-05-09T09:25:50.226Z,45.09
2024-05-09T09:28:18.699Z,45.42
2024-05-09T09:30:45.926Z,46.17
2024-05-09T09:33:13.268Z,48.94
2024-05-09T09:35:42.387Z,45.55
2024-05-09T09:38:10.735Z,46.34
2024-05-09T09:40:48.144Z,44.52
2024-05-09T09:43:23.934Z,43.72
2024-05-09T09:45:53.891Z,43.84
2024-05-09T09:48:22.362Z,46.48
2024-05-09T09:50:51.998Z,44.09
2024-05-09T09:53:20.106Z,42.93
2024-05-09T09:55:48.471Z,49.83
2024-05-09T09:58:18.735Z,46.22
2024-05-09T10:00:46.235Z,46.32
2024-05-09T10:03:13.521Z,45.02
2024-05-09T10:05:44.006Z,43.76
2024-05-09T10:08:14.503Z,43.32
2024-05-09T10:10:46.767Z,41.60
2024-05-09T10:13:14.018Z,44.07
2024-05-09T10:15:46.013Z,45.45
2024-05-09T10:18:15.363Z,44.31
2024-05-09T10:20:44.179Z,44.21
2024-05-09T10:23:25.808Z,42.21
2024-05-09T10:26:05.222Z,48.50
2024-05-09T10:28:36.973Z,45.05
2024-05-09T10:31:11.765Z,46.07
2024-05-09T10:33:52.614Z,45.25
2024-05-09T10:36:26.730Z,46.66
2024-05-09T10:38:55.205Z,45.26
2024-05-09T10:41:23.777Z,44.29
2024-05-09T10:43:51.788Z,44.52
2024-05-09T10:46:19.503Z,44.61
2024-05-09T10:48:48.636Z,44.79
2024-05-09T10:51:17.204Z,48.31
2024-05-09T10:53:46.037Z,45.62
2024-05-09T10:56:16.590Z,43.93
2024-05-09T10:58:44.618Z,46.26
2024-05-09T11:01:13.443Z,48.34
2024-05-09T11:03:41.186Z,49.32
2024-05-09T11:06:09.936Z,50.14
2024-05-09T11:08:38.118Z,49.09
2024-05-09T11:11:08.024Z,48.02
2024-05-09T11:13:37.963Z,48.38
2024-05-09T11:16:07.423Z,50.38
2024-05-09T11:18:38.219Z,47.17
2024-05-09T11:21:13.210Z,48.67
2024-05-09T11:23:41.018Z,46.08
2024-05-09T11:26:09.192Z,45.89
2024-05-09T11:28:36.655Z,46.88
2024-05-09T11:31:08.574Z,50.25
2024-05-09T11:33:39.931Z,45.83
2024-05-09T11:36:08.176Z,45.89
2024-05-09T11:38:35.256Z,50.07
2024-05-09T11:41:03.583Z,46.87
2024-05-09T11:43:31.002Z,49.66
2024-05-09T11:45:58.665Z,45.91
2024-05-09T11:48:26.946Z,49.25
2024-05-09T11:50:55.566Z,46.36
2024-05-09T11:53:22.945Z,45.97
2024-05-09T11:55:50.238Z,46.08
2024-05-09T11:58:18.561Z,46.73
2024-05-09T12:00:47.100Z,47.29
2024-05-09T12:03:14.799Z,47.61
2024-05-09T12:05:42.414Z,47.90
2024-05-09T12:08:09.787Z,48.32
2024-05-09T12:10:37.523Z,46.59
2024-05-09T12:13:06.592Z,46.76
2024-05-09T12:15:38.385Z,48.30
2024-05-09T12:18:09.313Z,47.11
2024-05-09T12:20:39.244Z,43.53
2024-05-09T12:23:10.595Z,47.13
2024-05-09T12:25:39.510Z,46.33
2024-05-09T12:28:07.971Z,46.27
2024-05-09T12:30:39.776Z,45.15
2024-05-09T12:33:09.726Z,48.63
2024-05-09T12:35:39.157Z,46.56
2024-05-09T12:38:06.264Z,44.73
2024-05-09T12:40:37.029Z,42.08
2024-05-09T12:43:10.849Z,41.10
2024-05-09T12:45:39.306Z,42.13
2024-05-09T12:48:12.168Z,45.91
2024-05-09T12:50:41.109Z,44.74
2024-05-09T12:53:08.492Z,44.78
2024-05-09T12:55:44.161Z,45.70
2024-05-09T12:58:22.396Z,45.57
2024-05-09T13:00:51.838Z,42.98
2024-05-09T13:03:19.385Z,42.21
2024-05-09T13:05:46.999Z,41.66
2024-05-09T13:08:14.278Z,41.84
2024-05-09T13:10:41.675Z,44.76
2024-05-09T13:13:10.254Z,43.37
2024-05-09T13:15:37.726Z,43.46
2024-05-09T13:18:06.481Z,44.81
2024-05-09T13:20:35.622Z,44.10
2024-05-09T13:23:05.509Z,43.81
2024-05-09T13:25:35.036Z,42.58
2024-05-09T13:28:03.749Z,43.45
2024-05-09T13:30:39.105Z,43.89
2024-05-09T13:33:14.093Z,38.38
2024-05-09T13:35:47.044Z,40.15
2024-05-09T13:38:22.048Z,41.04
2024-05-09T13:40:50.612Z,40.71
2024-05-09T13:43:18.762Z,43.18
2024-05-09T13:45:46.634Z,43.03
2024-05-09T13:48:14.062Z,41.50
2024-05-09T13:50:41.591Z,43.91
2024-05-09T13:53:09.232Z,42.11
2024-05-09T13:55:40.197Z,41.89
2024-05-09T13:58:08.698Z,42.05
2024-05-09T14:00:45.062Z,43.52
2024-05-09T14:03:17.981Z,43.67
2024-05-09T14:05:47.174Z,43.15
2024-05-09T14:08:15.824Z,41.72
2024-05-09T14:10:47.270Z,42.05
2024-05-09T14:13:15.238Z,44.10
2024-05-09T14:15:42.526Z,44.54
2024-05-09T14:18:13.117Z,46.55
2024-05-09T14:20:41.981Z,44.81
2024-05-09T14:23:09.179Z,45.76
2024-05-09T14:25:40.379Z,45.09
2024-05-09T14:28:10.118Z,45.25
2024-05-09T14:30:38.593Z,43.95
2024-05-09T14:33:07.832Z,43.96
2024-05-09T14:35:37.923Z,44.14
2024-05-09T14:38:07.276Z,44.28
2024-05-09T14:40:41.548Z,44.05
2024-05-09T14:43:12.563Z,43.80
2024-05-09T14:45:40.368Z,44.96
2024-05-09T14:48:08.261Z,46.02
2024-05-09T14:50:38.662Z,44.64
2024-05-09T14:53:08.837Z,46.61
2024-05-09T14:55:37.841Z,45.81
2024-05-09T14:58:09.630Z,44.24
2024-05-09T15:00:41.686Z,44.64
2024-05-09T15:03:13.203Z,44.17
2024-05-09T15:05:40.762Z,43.75
2024-05-09T15:08:08.786Z,43.13
2024-05-09T15:10:37.203Z,42.98
2024-05-09T15:13:07.783Z,43.55
2024-05-09T15:15:37.055Z,45.66
2024-05-09T15:18:05.690Z,44.87
2024-05-09T15:20:36.192Z,44.80
2024-05-09T15:23:06.690Z,44.73
2024-05-09T15:25:36.246Z,45.15
2024-05-09T15:28:04.922Z,43.93
2024-05-09T15:30:33.862Z,43.92
2024-05-09T15:33:06.445Z,43.99
2024-05-09T15:35:35.930Z,44.85
2024-05-09T15:38:04.365Z,43.66
2024-05-09T15:40:38.904Z,44.46
2024-05-09T15:43:10.293Z,43.83
2024-05-09T15:45:39.291Z,45.54
2024-05-09T15:48:07.704Z,44.68
2024-05-09T15:50:39.307Z,44.70
2024-05-09T15:53:09.863Z,44.31
2024-05-09T15:55:38.266Z,43.15
2024-05-09T15:58:06.435Z,44.27
2024-05-09T16:00:39.115Z,44.21
2024-05-09T16:03:10.492Z,44.75
2024-05-09T16:05:38.434Z,44.42
2024-05-09T16:08:06.813Z,45.78
2024-05-09T16:10:35.213Z,44.76
2024-05-09T16:13:03.759Z,46.63
2024-05-09T16:15:31.336Z,46.43
2024-05-09T16:17:58.818Z,47.00
2024-05-09T16:20:34.862Z,46.17
2024-05-09T16:23:07.848Z,45.91
2024-05-09T16:25:35.072Z,46.94
2024-05-09T16:28:06.260Z,46.10
2024-05-09T16:30:36.658Z,46.31
2024-05-09T16:33:05.110Z,46.31
2024-05-09T16:35:34.626Z,45.88
2024-05-09T16:38:03.163Z,45.58
2024-05-09T16:40:37.663Z,47.68
2024-05-09T16:43:11.213Z,46.74
2024-05-09T16:45:40.225Z,46.34
2024-05-09T16:48:08.451Z,48.48
2024-05-09T16:50:36.757Z,45.30
2024-05-09T16:53:06.076Z,46.73
2024-05-09T16:55:34.658Z,46.14
2024-05-09T16:58:02.753Z,45.82
2024-05-09T17:00:39.381Z,45.44
2024-05-09T17:03:12.741Z,46.88
2024-05-09T17:05:41.494Z,46.68
2024-05-09T17:08:09.023Z,47.26
2024-05-09T17:10:36.725Z,48.84
2024-05-09T17:13:05.929Z,47.71
2024-05-09T17:15:34.972Z,48.86
2024-05-09T17:18:02.806Z,47.81
2024-05-09T17:20:34.473Z,49.12
2024-05-09T17:23:05.970Z,49.08
2024-05-09T17:25:34.132Z,49.50
2024-05-09T17:28:07.656Z,49.78
2024-05-09T17:30:38.324Z,50.01
2024-05-09T17:33:08.804Z,51.32
2024-05-09T17:35:37.194Z,50.67
2024-05-09T17:38:05.953Z,51.43
2024-05-09T17:40:36.146Z,51.58
2024-05-09T17:43:07.053Z,51.81
2024-05-09T17:45:37.830Z,53.14
2024-05-09T17:48:05.931Z,51.74
2024-05-09T17:50:36.085Z,51.23
2024-05-09T17:53:06.440Z,51.71
2024-05-09T17:55:34.188Z,51.77
2024-05-09T17:58:01.825Z,52.10
2024-05-09T18:00:37.274Z,52.66
2024-05-09T18:03:08.938Z,52.74
2024-05-09T18:05:37.305Z,52.56
2024-05-09T18:08:06.611Z,52.89
2024-05-09T18:10:37.973Z,53.27
2024-05-09T18:13:08.495Z,53.82
2024-05-09T18:15:36.021Z,53.66
2024-05-09T18:18:04.019Z,54.19
2024-05-09T18:20:40.286Z,55.31
2024-05-09T18:23:11.750Z,55.37
2024-05-09T18:25:38.797Z,56.39
2024-05-09T18:28:06.963Z,55.34
2024-05-09T18:30:36.423Z,55.10
2024-05-09T18:33:06.552Z,54.72
2024-05-09T18:35:36.999Z,54.79
2024-05-09T18:38:05.609Z,55.41
2024-05-09T18:40:36.171Z,54.75
2024-05-09T18:43:08.153Z,54.84
2024-05-09T18:45:39.776Z,55.68
2024-05-09T18:48:09.100Z,55.00
2024-05-09T18:50:39.532Z,55.20
2024-05-09T18:53:11.761Z,55.26
2024-05-09T18:55:40.744Z,54.97
2024-05-09T18:58:07.933Z,54.37
2024-05-09T19:00:38.617Z,55.58
2024-05-09T19:03:11.728Z,55.79
2024-05-09T19:05:43.272Z,56.07
2024-05-09T19:08:11.557Z,56.18
2024-05-09T19:10:39.233Z,55.90
2024-05-09T19:13:11.095Z,56.67
2024-05-09T19:15:40.930Z,56.76
2024-05-09T19:18:09.729Z,56.60
2024-05-09T19:20:37.668Z,57.39
2024-05-09T19:23:06.536Z,56.43
2024-05-09T19:25:34.859Z,54.59
2024-05-09T19:28:02.290Z,56.25
2024-05-09T19:30:37.774Z,55.59
2024-05-09T19:33:09.587Z,55.69
2024-05-09T19:35:37.537Z,57.02
2024-05-09T19:38:05.513Z,58.37
2024-05-09T19:40:34.254Z,59.77
2024-05-09T19:43:03.152Z,60.43
2024-05-09T19:45:32.852Z,62.44
2024-05-09T19:48:00.855Z,64.10
2024-05-09T19:50:36.907Z,62.87
2024-05-09T19:53:10.724Z,63.96
2024-05-09T19:55:38.467Z,64.58
2024-05-09T19:58:07.250Z,64.07
2024-05-09T20:00:41.684Z,64.58
2024-05-09T20:03:12.538Z,63.43
2024-05-09T20:05:40.295Z,64.76
2024-05-09T20:08:07.900Z,62.97
2024-05-09T20:10:36.365Z,63.59
2024-05-09T20:13:06.444Z,63.69
2024-05-09T20:15:36.848Z,63.32
2024-05-09T20:18:05.076Z,62.28
2024-05-09T20:20:38.885Z,63.51
2024-05-09T20:23:10.001Z,63.72
2024-05-09T20:25:37.624Z,62.11
2024-05-09T20:28:06.252Z,60.86
2024-05-09T20:30:35.030Z,63.99
2024-05-09T20:33:04.915Z,64.51
2024-05-09T20:35:33.537Z,64.73
2024-05-09T20:38:02.050Z,65.29
2024-05-09T20:40:34.413Z,65.56
2024-05-09T20:43:05.596Z,65.87
2024-05-09T20:45:33.523Z,65.68
2024-05-09T20:48:01.079Z,64.29
2024-05-09T20:50:36.654Z,64.19
2024-05-09T20:53:12.633Z,63.49
2024-05-09T20:55:40.949Z,64.00
2024-05-09T20:58:09.615Z,64.27
2024-05-09T21:00:40.838Z,64.46
2024-05-09T21:03:11.713Z,65.15
2024-05-09T21:05:40.000Z,63.36
2024-05-09T21:08:07.803Z,64.11
2024-05-09T21:10:36.715Z,64.55
2024-05-09T21:13:05.391Z,64.92
2024-05-09T21:15:33.264Z,65.04
2024-05-09T21:18:00.511Z,66.74
2024-05-09T21:20:31.524Z,65.16
2024-05-09T21:23:01.590Z,64.50
2024-05-09T21:25:29.627Z,66.18
2024-05-09T21:27:56.821Z,65.33
2024-05-09T21:30:32.636Z,65.24
2024-05-09T21:33:13.750Z,66.04
2024-05-09T21:35:43.687Z,65.61
2024-05-09T21:38:11.242Z,66.76
2024-05-09T21:40:38.888Z,67.99
2024-05-09T21:43:08.903Z,68.06
2024-05-09T21:45:37.176Z,69.13
2024-05-09T21:48:05.346Z,69.46
2024-05-09T21:50:39.586Z,70.55
2024-05-09T21:53:12.721Z,70.25
2024-05-09T21:55:40.477Z,70.48
2024-05-09T21:58:07.846Z,70.80
2024-05-09T22:00:38.252Z,71.00
2024-05-09T22:03:08.133Z,71.36
2024-05-09T22:05:36.415Z,70.81
2024-05-09T22:08:04.006Z,70.00
2024-05-09T22:10:34.826Z,69.72
2024-05-09T22:13:07.314Z,69.43
2024-05-09T22:15:36.464Z,69.83
2024-05-09T22:18:04.852Z,69.54
2024-05-09T22:20:37.262Z,69.01
2024-05-09T22:23:07.014Z,69.54
2024-05-09T22:25:34.414Z,69.49
2024-05-09T22:28:02.709Z,67.86
2024-05-09T22:30:36.212Z,67.09
2024-05-09T22:33:11.678Z,67.46
2024-05-09T22:35:40.552Z,67.83
2024-05-09T22:38:07.948Z,66.88
2024-05-09T22:40:45.578Z,66.87
2024-05-09T22:43:21.522Z,66.40
2024-05-09T22:45:51.235Z,65.94
2024-05-09T22:48:18.801Z,66.70
2024-05-09T22:50:46.120Z,67.68
2024-05-09T22:53:13.156Z,67.51
2024-05-09T22:55:40.264Z,68.11
2024-05-09T22:58:07.557Z,67.77
2024-05-09T23:00:35.170Z,68.30
2024-05-09T23:03:03.120Z,69.33
2024-05-09T23:05:31.000Z,70.05
2024-05-09T23:07:58.318Z,69.32
2024-05-09T23:10:32.238Z,69.29
2024-05-09T23:13:04.116Z,69.22
2024-05-09T23:15:31.582Z,69.78
2024-05-09T23:17:59.137Z,70.24
2024-05-09T23:20:35.922Z,70.95
2024-05-09T23:23:06.904Z,71.02
2024-05-09T23:25:34.385Z,71.58
2024-05-09T23:28:01.851Z,71.46
2024-05-09T23:30:36.958Z,71.20
2024-05-09T23:33:08.005Z,72.14
2024-05-09T23:35:35.389Z,71.86
2024-05-09T23:38:02.551Z,71.88
2024-05-09T23:40:38.177Z,72.38
2024-05-09T23:43:12.116Z,73.14
2024-05-09T23:45:40.129Z,73.00
2024-05-09T23:48:08.279Z,73.56
2024-05-09T23:50:37.994Z,73.94
2024-05-09T23:53:08.312Z,74.49
2024-05-09T23:55:36.425Z,74.71
2024-05-09T23:58:03.707Z,75.42
